createdAt,value
2017-01-26T00:00:36.610Z,1.4
2017-01-26T00:01:42.607Z,1.5
2017-01-26T00:02:48.604Z,1.5
2017-01-26T00:03:54.599Z,1.4
2017-01-26T00:05:00.641Z,1.5
2017-01-26T00:06:06.635Z,1.4
2017-01-26T00:07:12.626Z,1.4
2017-01-26T00:08:18.652Z,1.4
2017-01-26T00:09:24.653Z,1.4
2017-01-26T00:10:30.665Z,1.4
2017-01-26T00:11:36.668Z,1.4
2017-01-26T00:12:42.667Z,1.4
2017-01-26T00:13:48.663Z,1.4
2017-01-26T00:14:54.660Z,1.5
2017-01-26T00:16:00.654Z,1.5
2017-01-26T00:17:06.648Z,1.5
2017-01-26T00:18:12.650Z,1.5
2017-01-26T00:19:18.656Z,1.4
2017-01-26T00:20:24.647Z,1.4
2017-01-26T00:21:30.644Z,1.3
2017-01-26T00:22:36.635Z,1.4
2017-01-26T00:23:42.646Z,1.4
2017-01-26T00:24:48.638Z,1.4
2017-01-26T00:25:54.633Z,1.4
2017-01-26T00:27:00.638Z,1.4
2017-01-26T00:28:06.639Z,1.4
2017-01-26T00:29:12.633Z,1.3
2017-01-26T00:30:18.627Z,1.3
2017-01-26T00:31:24.624Z,1.3
2017-01-26T00:32:30.625Z,1.3
2017-01-26T00:33:36.622Z,1.2
2017-01-26T00:34:42.622Z,1.3
2017-01-26T00:35:48.622Z,1.3
2017-01-26T00:36:54.611Z,1.3
2017-01-26T00:38:00.614Z,1.4
2017-01-26T14:17:52.784Z,4.2
2017-01-26T14:18:58.806Z,4.8
2017-01-26T14:20:04.830Z,4.7
2017-01-26T14:21:10.852Z,4.8
2017-01-26T14:22:16.870Z,4.8
2017-01-26T14:23:22.887Z,4.5
2017-01-26T14:24:28.906Z,4.4
2017-01-26T14:25:34.928Z,4.4
2017-01-26T14:26:40.951Z,4.4
2017-01-26T14:27:46.972Z,4.4
2017-01-26T14:28:52.996Z,4.3
2017-01-26T14:29:58.357Z,4.3
2017-01-26T14:31:04.375Z,4.3
2017-01-26T14:32:10.386Z,4.2
2017-01-26T14:33:16.406Z,4.2
2017-01-26T14:34:22.432Z,4.1
2017-01-26T14:35:27.359Z,4.1
2017-01-26T14:36:33.377Z,4.1
2017-01-26T14:37:39.400Z,4.1
2017-01-26T14:38:45.419Z,4
2017-01-26T14:39:51.446Z,3.9
2017-01-26T14:40:57.466Z,3.9
2017-01-26T14:42:03.478Z,3.9
2017-01-26T14:43:09.497Z,3.9
2017-01-26T14:44:14.860Z,3.9
2017-01-26T14:45:20.885Z,3.9
2017-01-26T14:46:26.990Z,3.8
2017-01-26T14:47:49.652Z,3.8
2017-01-26T14:48:55.674Z,3.9
2017-01-26T14:50:01.699Z,3.8
2017-01-26T14:51:07.719Z,3.6
2017-01-26T14:52:13.736Z,3.7
2017-01-26T14:53:19.757Z,3.7
2017-01-26T14:54:25.772Z,3.7
2017-01-26T14:55:31.795Z,3.7
2017-01-26T14:56:37.818Z,3.6
2017-01-26T14:57:43.838Z,3.5
2017-01-26T14:58:49.867Z,3.4
2017-01-26T14:59:55.879Z,3.5
2017-01-26T15:01:01.902Z,3.4
2017-01-26T15:02:07.949Z,3.4
2017-01-26T15:03:13.935Z,3.4
2017-01-26T15:04:19.963Z,3.4
2017-01-26T15:05:25.988Z,3.5
2017-01-26T15:06:32.006Z,3.5
2017-01-26T15:07:38.032Z,3.3
2017-01-26T15:08:44.053Z,3.3
2017-01-26T15:09:50.076Z,3.3
2017-01-26T15:10:55.001Z,3.3
2017-01-26T15:12:01.010Z,3.3
2017-01-26T15:13:07.034Z,3.3
2017-01-26T15:14:13.053Z,3.2
2017-01-26T15:15:17.320Z,3.2
2017-01-26T15:16:23.334Z,3.2
2017-01-26T15:17:29.377Z,3.2
2017-01-26T15:18:34.723Z,3.2
2017-01-26T15:19:40.086Z,3.2
2017-01-26T15:20:45.440Z,3.1
2017-01-26T15:21:51.464Z,3.1
2017-01-26T15:22:57.488Z,3
2017-01-26T15:24:03.500Z,3.1
2017-01-26T15:25:09.527Z,3
2017-01-26T15:26:15.550Z,3
2017-01-26T15:27:20.468Z,3
2017-01-26T15:28:26.479Z,3
2017-01-26T15:29:32.509Z,3
2017-01-26T15:30:38.525Z,3
2017-01-26T15:31:44.541Z,2.9
2017-01-26T15:32:50.556Z,2.9
2017-01-26T15:33:56.584Z,2.9
2017-01-26T15:35:02.613Z,2.9
2017-01-26T15:36:08.631Z,2.9
2017-01-26T15:37:13.554Z,2.9
2017-01-26T15:38:19.568Z,2.8
2017-01-26T15:39:25.599Z,2.8
2017-01-26T15:40:31.613Z,2.7
2017-01-26T15:41:36.979Z,2.7
2017-01-26T15:42:42.996Z,2.7
2017-01-26T15:43:49.020Z,2.7
2017-01-26T15:44:54.366Z,2.6
2017-01-26T15:46:00.391Z,2.6
2017-01-26T15:47:06.414Z,2.6
2017-01-26T15:48:11.330Z,2.6
2017-01-26T15:49:17.347Z,2.5
2017-01-26T15:50:23.371Z,2.5
2017-01-26T15:51:28.298Z,2.5
2017-01-26T15:52:34.308Z,2.5
2017-01-26T15:53:40.336Z,2.5
2017-01-26T15:54:45.699Z,2.5
2017-01-26T15:55:51.723Z,2.4
2017-01-26T15:56:56.636Z,2.4
2017-01-26T15:58:02.655Z,2.4
2017-01-26T15:59:08.007Z,2.5
2017-01-26T16:00:14.030Z,2.4
2017-01-26T16:01:20.057Z,2.4
2017-01-26T16:02:24.980Z,2.3
2017-01-26T16:03:30.993Z,2.4
2017-01-26T16:04:37.015Z,2.5
2017-01-26T16:05:43.034Z,2.4
2017-01-26T16:06:49.053Z,2.3
2017-01-26T16:07:55.071Z,2.3
2017-01-26T16:09:01.092Z,2.2
2017-01-26T16:10:07.110Z,2.2
2017-01-26T16:11:13.132Z,2.2
2017-01-26T16:12:19.152Z,2.2
2017-01-26T16:13:25.176Z,2.1
2017-01-26T16:14:31.197Z,2.2
2017-01-26T16:15:37.220Z,2.2
2017-01-26T16:16:43.236Z,2.1
2017-01-26T16:17:49.258Z,2.1
2017-01-26T16:18:55.275Z,2.1
2017-01-26T16:20:00.660Z,2.2
2017-01-26T16:21:06.656Z,2.1
2017-01-26T16:22:12.677Z,2.1
2017-01-26T16:23:18.040Z,2
2017-01-26T16:24:24.064Z,2.1
2017-01-26T16:25:29.423Z,2
2017-01-26T16:26:35.447Z,2
2017-01-26T16:27:41.466Z,2.1
2017-01-26T16:28:47.479Z,2.1
2017-01-26T16:29:53.490Z,2
2017-01-26T16:30:59.506Z,2
2017-01-26T16:32:05.528Z,1.9
2017-01-26T16:33:11.555Z,1.9
2017-01-26T16:34:17.572Z,1.9
2017-01-26T16:35:22.927Z,1.9
2017-01-26T16:36:28.951Z,1.9
2017-01-26T16:37:34.310Z,1.8
2017-01-26T16:38:40.331Z,1.8
2017-01-26T16:39:46.353Z,1.8
2017-01-26T16:40:52.372Z,1.8
2017-01-26T16:41:58.388Z,1.8
2017-01-26T16:43:04.405Z,1.8
2017-01-26T16:44:10.429Z,1.8
2017-01-26T16:45:15.354Z,1.8
2017-01-26T16:46:21.373Z,1.8
2017-01-26T16:47:27.395Z,1.7
2017-01-26T16:48:33.409Z,1.7
2017-01-26T16:49:39.434Z,1.7
2017-01-26T16:50:45.457Z,1.7
2017-01-26T16:51:51.476Z,1.7
2017-01-26T16:52:57.509Z,1.7
2017-01-26T16:54:02.865Z,1.7
2017-01-26T16:55:08.885Z,1.7
2017-01-26T16:56:14.898Z,1.7
2017-01-26T16:57:19.163Z,1.7
2017-01-26T16:58:25.199Z,1.7
2017-01-26T16:59:31.199Z,1.7
2017-01-26T17:00:37.492Z,1.7
2017-01-26T17:01:43.522Z,1.7
2017-01-26T17:02:49.539Z,1.7
2017-01-26T17:03:55.558Z,1.6
2017-01-26T17:05:01.583Z,1.7
2017-01-26T17:06:07.611Z,1.6
2017-01-26T17:07:13.630Z,1.6
2017-01-26T17:08:19.646Z,1.7
2017-01-26T17:09:25.671Z,1.7
2017-01-26T17:10:31.695Z,1.7
2017-01-26T17:11:37.709Z,1.7
2017-01-26T17:12:43.735Z,1.7
2017-01-26T17:13:49.755Z,1.6
2017-01-26T17:14:55.775Z,1.7
2017-01-26T17:16:01.787Z,1.7
2017-01-26T17:17:07.799Z,1.7
2017-01-26T17:18:12.719Z,1.6
2017-01-26T17:19:18.076Z,1.5
2017-01-26T17:20:24.092Z,1.6
2017-01-26T17:21:30.118Z,1.5
2017-01-26T17:22:36.139Z,1.5
2017-01-26T17:23:42.162Z,1.5
2017-01-26T17:24:48.175Z,1.5
2017-01-26T17:25:54.205Z,1.6
2017-01-26T17:27:00.224Z,1.5
2017-01-26T17:28:06.243Z,1.5
2017-01-26T17:29:12.256Z,1.5
2017-01-26T17:30:18.282Z,1.4
2017-01-26T17:31:24.301Z,1.5
2017-01-26T17:32:30.318Z,1.5
2017-01-26T17:33:35.676Z,1.5
2017-01-26T17:34:41.697Z,1.5
2017-01-26T17:35:47.720Z,1.5
2017-01-26T17:36:53.744Z,1.4
2017-01-26T17:37:59.766Z,1.4
2017-01-26T17:39:05.793Z,1.4
2017-01-26T17:40:11.813Z,1.4
2017-01-26T17:41:17.835Z,1.5
2017-01-26T17:42:23.858Z,1.4
2017-01-26T17:43:29.885Z,1.5
2017-01-26T17:44:35.906Z,1.4
2017-01-26T17:45:41.922Z,1.4
2017-01-26T17:46:47.939Z,1.4
2017-01-26T17:47:53.960Z,1.4
2017-01-26T17:48:59.975Z,1.4
2017-01-26T17:50:05.331Z,1.3
2017-01-26T17:51:11.356Z,1.3
2017-01-26T17:52:17.381Z,1.4
2017-01-26T17:53:23.396Z,1.4
2017-01-26T17:54:29.411Z,1.4
2017-01-26T17:55:35.433Z,1.3
2017-01-26T17:56:41.452Z,1.3
2017-01-26T17:57:46.801Z,1.4
2017-01-26T17:58:52.816Z,1.4
2017-01-26T17:59:58.178Z,1.3
2017-01-26T18:01:04.198Z,1.3
2017-01-26T18:02:10.215Z,1.3
2017-01-26T18:03:16.238Z,1.3
2017-01-26T18:04:21.596Z,1.2
2017-01-26T18:05:26.520Z,1.2
2017-01-26T18:06:32.540Z,1.2
2017-01-26T18:07:38.564Z,1.2
2017-01-26T18:08:44.586Z,1.3
2017-01-26T18:09:50.604Z,1.2
2017-01-26T18:10:56.632Z,1.2
2017-01-26T18:12:01.561Z,1.2
2017-01-26T18:13:07.584Z,1.3
2017-01-26T18:14:13.603Z,1.2
2017-01-26T18:15:19.630Z,1.2
2017-01-26T18:16:25.649Z,1.2
2017-01-26T18:17:31.678Z,1.2
2017-01-26T18:18:37.698Z,1.1
2017-01-26T18:19:43.710Z,1.2
2017-01-26T18:20:49.732Z,1.1
2017-01-26T18:21:55.758Z,1.1
2017-01-26T18:23:01.783Z,1.2
2017-01-26T18:24:07.796Z,1.2
2017-01-26T18:25:13.825Z,1.1
2017-01-26T18:26:19.836Z,1.1
2017-01-26T18:27:25.851Z,1.1
2017-01-26T18:28:31.869Z,1.1
2017-01-26T18:29:37.893Z,1.1
2017-01-26T18:30:43.909Z,1.1
2017-01-26T18:31:49.927Z,1.1
2017-01-26T18:32:55.948Z,1.1
2017-01-26T18:34:01.971Z,1.1
2017-01-26T18:35:07.988Z,1.1
2017-01-26T18:36:14.004Z,1.1
2017-01-26T18:37:20.023Z,1.1
2017-01-26T18:38:26.033Z,1.1
2017-01-26T18:39:32.052Z,1.1
2017-01-26T18:40:36.308Z,1.1
2017-01-26T18:41:42.331Z,1.1
2017-01-26T18:42:48.354Z,1.1
2017-01-26T18:43:54.366Z,1.1
2017-01-26T18:44:59.719Z,1.1
2017-01-26T18:46:04.642Z,1
2017-01-26T18:47:10.665Z,1
2017-01-26T18:48:15.580Z,1
2017-01-26T18:49:21.610Z,1
2017-01-26T18:50:27.633Z,1
2017-01-26T18:51:33.656Z,1
2017-01-26T18:52:39.669Z,1
2017-01-26T18:53:44.593Z,1.1
2017-01-26T18:54:50.609Z,1
2017-01-26T18:55:56.630Z,1
2017-01-26T18:57:00.888Z,1
2017-01-26T18:58:06.921Z,1
2017-01-26T18:59:12.937Z,0.9
2017-01-26T19:00:18.956Z,1
2017-01-26T19:01:24.974Z,1
2017-01-26T19:02:30.989Z,0.9
2017-01-26T19:03:36.351Z,1
2017-01-26T19:04:42.368Z,1
2017-01-26T19:05:48.386Z,1
2017-01-26T19:06:54.409Z,0.9
2017-01-26T19:08:00.432Z,1
2017-01-26T19:09:06.453Z,0.9
2017-01-26T19:10:12.468Z,1
2017-01-26T19:11:18.491Z,0.9
2017-01-26T19:12:24.520Z,0.9
2017-01-26T19:13:30.539Z,0.9
2017-01-26T19:14:36.558Z,0.9
2017-01-26T19:15:42.607Z,0.8
2017-01-26T19:16:47.938Z,0.8
2017-01-26T19:17:53.958Z,0.9
2017-01-26T19:18:59.977Z,0.9
2017-01-26T19:20:06.001Z,0.9
2017-01-26T19:21:11.380Z,0.8
2017-01-26T19:22:16.830Z,0.8
2017-01-26T19:23:22.847Z,0.8
2017-01-26T19:24:28.871Z,0.9
2017-01-26T19:25:34.893Z,0.8
2017-01-26T19:26:40.915Z,0.8
2017-01-26T19:27:46.933Z,0.8
2017-01-26T19:28:52.957Z,0.8
2017-01-26T19:29:58.977Z,0.9
2017-01-26T19:31:05.004Z,0.8
2017-01-26T19:32:11.079Z,0.8
2017-01-26T19:33:17.106Z,0.8
2017-01-26T19:34:23.126Z,0.8
2017-01-26T19:35:29.144Z,0.8
2017-01-26T19:36:35.167Z,0.8
2017-01-26T19:37:41.183Z,0.8
2017-01-26T19:38:46.538Z,0.8
2017-01-26T19:39:51.899Z,0.7
2017-01-26T19:40:57.924Z,0.8
2017-01-26T19:42:03.942Z,0.8
2017-01-26T19:43:09.300Z,0.8
2017-01-26T19:44:14.653Z,0.7
2017-01-26T19:45:20.678Z,0.7
2017-01-26T19:46:24.941Z,0.7
2017-01-26T19:47:30.961Z,0.8
2017-01-26T19:48:36.314Z,0.8
2017-01-26T19:49:41.243Z,0.7
2017-01-26T19:50:47.254Z,0.8
2017-01-26T19:51:53.273Z,0.8
2017-01-26T19:52:59.303Z,0.8
2017-01-26T19:54:04.658Z,0.8
2017-01-26T19:55:10.679Z,0.8
2017-01-26T19:56:16.028Z,0.7
2017-01-26T19:57:22.060Z,0.8
2017-01-26T19:58:28.081Z,0.7
2017-01-26T19:59:34.093Z,0.7
2017-01-26T20:00:40.118Z,0.7
2017-01-26T20:01:46.141Z,0.7
2017-01-26T20:02:51.497Z,0.7
2017-01-26T20:03:57.516Z,0.7
2017-01-26T20:05:02.882Z,0.7
2017-01-26T20:06:08.238Z,0.7
2017-01-26T20:07:14.258Z,0.7
2017-01-26T20:08:19.613Z,0.7
2017-01-26T20:09:25.640Z,0.7
2017-01-26T20:10:31.648Z,0.7
2017-01-26T20:11:37.670Z,0.7
2017-01-26T20:12:43.698Z,0.7
2017-01-26T20:13:49.725Z,0.7
2017-01-26T20:14:55.740Z,0.7
2017-01-26T20:16:01.754Z,0.7
2017-01-26T20:17:07.781Z,0.6
2017-01-26T20:18:13.804Z,0.6
2017-01-26T20:19:19.825Z,0.7
2017-01-26T20:20:24.743Z,0.7
2017-01-26T20:21:30.769Z,0.6
2017-01-26T20:22:36.789Z,0.6
2017-01-26T20:23:42.807Z,0.6
2017-01-26T20:24:48.824Z,0.6
2017-01-26T20:25:54.188Z,0.6
2017-01-26T20:27:00.211Z,0.6
2017-01-26T20:28:06.225Z,0.6
2017-01-26T20:29:12.240Z,0.6
2017-01-26T20:30:18.259Z,0.6
2017-01-26T20:31:24.279Z,0.6
2017-01-26T20:32:29.197Z,0.6
2017-01-26T20:33:35.225Z,0.6
2017-01-26T20:34:41.244Z,0.5
2017-01-26T20:35:47.263Z,0.5
2017-01-26T20:36:52.621Z,0.5
2017-01-26T20:37:58.645Z,0.5
2017-01-26T20:39:04.670Z,0.5
2017-01-26T20:40:10.024Z,0.5
2017-01-26T20:41:16.042Z,0.5
2017-01-26T20:42:22.059Z,0.5
2017-01-26T20:43:28.080Z,0.5
2017-01-26T20:44:34.103Z,0.5
2017-01-26T20:45:40.124Z,0.5
2017-01-26T20:46:46.140Z,0.5
2017-01-26T20:47:52.169Z,0.5
2017-01-26T20:48:58.189Z,0.5
2017-01-26T20:50:04.210Z,0.4
2017-01-26T20:51:10.237Z,0.4
2017-01-26T20:52:14.936Z,0.4
2017-01-26T20:53:20.955Z,0.4
2017-01-26T20:54:26.976Z,0.4
2017-01-26T20:55:32.998Z,0.4
2017-01-26T20:56:39.018Z,0.4
2017-01-26T20:57:45.039Z,0.4
2017-01-26T20:58:51.063Z,0.4
2017-01-26T20:59:57.090Z,0.4
2017-01-26T21:01:03.116Z,0.4
2017-01-26T21:02:09.137Z,0.4
2017-01-26T21:03:15.155Z,0.3
2017-01-26T21:04:20.512Z,0.4
2017-01-26T21:05:26.536Z,0.4
2017-01-26T21:06:32.574Z,0.4
2017-01-26T21:07:37.496Z,0.5
2017-01-26T21:08:42.424Z,0.5
2017-01-26T21:09:48.446Z,0.4
2017-01-26T21:10:53.802Z,0.4
2017-01-26T21:11:59.817Z,0.4
2017-01-26T21:13:05.840Z,0.4
2017-01-26T21:14:11.863Z,0.4
2017-01-26T21:15:17.872Z,0.4
2017-01-26T21:16:23.898Z,0.4
2017-01-26T21:17:29.923Z,0.3
2017-01-26T21:18:35.945Z,0.3
2017-01-26T21:19:41.956Z,0.3
2017-01-26T21:20:47.983Z,0.3
2017-01-26T21:21:54.007Z,0.4
2017-01-26T21:23:00.026Z,0.4
2017-01-26T21:24:04.940Z,0.3
2017-01-26T21:25:10.969Z,0.3
2017-01-26T21:26:16.993Z,0.3
2017-01-26T21:27:23.011Z,0.3
2017-01-26T21:28:29.033Z,0.4
2017-01-26T21:29:35.062Z,0.3
2017-01-26T21:30:41.096Z,0.3
2017-01-26T21:31:47.096Z,0.4
2017-01-26T21:32:53.123Z,0.3
2017-01-26T21:33:59.140Z,0.3
2017-01-26T21:35:04.061Z,0.4
2017-01-26T21:36:10.084Z,0.3
2017-01-26T21:37:16.114Z,0.3
2017-01-26T21:38:21.474Z,0.3
2017-01-26T21:39:27.489Z,0.2
2017-01-26T21:40:33.507Z,0.3
2017-01-26T21:41:39.524Z,0.3
2017-01-26T21:42:45.549Z,0.3
2017-01-26T21:43:51.568Z,0.2
2017-01-26T21:44:57.589Z,0.3
2017-01-26T21:46:03.616Z,0.2
2017-01-26T21:47:08.972Z,0.2
2017-01-26T21:48:14.995Z,0.2
2017-01-26T21:49:20.343Z,0.1
2017-01-26T21:50:26.359Z,0.2
2017-01-26T21:51:32.378Z,0.1
2017-01-26T21:52:38.398Z,0.1
2017-01-26T21:53:44.442Z,0.1
2017-01-26T21:54:50.435Z,0.1
2017-01-26T21:55:56.459Z,0.1
2017-01-26T21:57:02.478Z,0.1
2017-01-26T21:58:08.491Z,0.1
2017-01-26T21:59:14.509Z,0.1
2017-01-26T22:00:20.531Z,0.1
2017-01-26T22:01:26.547Z,0.1
2017-01-26T22:02:32.570Z,0.1
2017-01-26T22:03:38.588Z,0
2017-01-26T22:04:44.615Z,0.1
2017-01-26T22:05:50.625Z,0.1
2017-01-26T22:06:56.646Z,0.1
2017-01-26T22:08:02.661Z,0.1
2017-01-26T22:09:07.584Z,0.1
2017-01-26T22:10:13.599Z,0
2017-01-26T22:11:19.620Z,0
2017-01-26T22:12:25.646Z,0
2017-01-26T22:13:31.667Z,-0.1
2017-01-26T22:14:37.688Z,-0.1
2017-01-26T22:15:43.709Z,-0.1
2017-01-26T22:16:49.064Z,-0.1
2017-01-26T22:17:55.085Z,-0.1
2017-01-26T22:19:01.105Z,-0.1
2017-01-26T22:20:07.128Z,0
2017-01-26T22:21:13.150Z,-0.1
2017-01-26T22:22:19.175Z,-0.1
2017-01-26T22:23:25.196Z,-0.1
2017-01-26T22:24:30.562Z,-0.1
2017-01-26T22:25:35.917Z,-0.1
2017-01-26T22:26:41.935Z,-0.1
2017-01-26T22:27:46.845Z,-0.1
2017-01-26T22:28:52.883Z,0
2017-01-26T22:29:58.899Z,-0.1
2017-01-26T22:31:04.256Z,-0.1
2017-01-26T22:32:10.286Z,-0.1
2017-01-26T22:33:16.311Z,-0.1
2017-01-26T22:34:22.329Z,0
2017-01-26T22:35:28.347Z,-0.1
2017-01-26T22:36:34.373Z,-0.1
2017-01-26T22:37:40.394Z,0
2017-01-26T22:38:46.416Z,-0.1
2017-01-26T22:39:52.438Z,-0.1
2017-01-26T22:40:57.800Z,-0.1
2017-01-26T22:42:03.823Z,0
2017-01-26T22:43:09.846Z,-0.1
2017-01-26T22:44:15.876Z,-0.1
2017-01-26T22:45:20.801Z,-0.1
2017-01-26T22:46:25.725Z,-0.2
2017-01-26T22:47:31.744Z,-0.2
2017-01-26T22:48:37.773Z,-0.2
2017-01-26T22:49:43.794Z,-0.2
2017-01-26T22:50:49.838Z,-0.2
2017-01-26T22:51:55.825Z,-0.2
2017-01-26T22:53:01.855Z,-0.2
2017-01-26T22:54:07.871Z,-0.2
2017-01-26T22:55:13.893Z,-0.2
2017-01-26T22:56:19.919Z,-0.2
2017-01-26T22:57:25.951Z,-0.2
2017-01-26T22:58:30.874Z,-0.2
2017-01-26T22:59:36.894Z,-0.2
2017-01-26T23:00:42.250Z,-0.2
2017-01-26T23:01:48.272Z,-0.1
2017-01-26T23:02:53.198Z,-0.2
2017-01-26T23:03:59.216Z,-0.2
2017-01-26T23:05:05.235Z,-0.2
2017-01-26T23:06:10.159Z,-0.3
2017-01-26T23:07:16.180Z,-0.2
2017-01-26T23:08:22.203Z,-0.2
2017-01-26T23:09:28.227Z,-0.3
2017-01-26T23:10:33.146Z,-0.2
2017-01-26T23:11:39.164Z,-0.2
2017-01-26T23:12:45.182Z,-0.2
2017-01-26T23:13:51.213Z,-0.2
2017-01-26T23:14:57.244Z,-0.2
2017-01-26T23:16:03.256Z,-0.3
2017-01-26T23:17:09.273Z,-0.3
2017-01-26T23:18:14.636Z,-0.2
2017-01-26T23:19:20.652Z,-0.2
2017-01-26T23:20:26.006Z,-0.2
2017-01-26T23:21:32.028Z,-0.3
2017-01-26T23:22:38.054Z,-0.3
2017-01-26T23:23:44.080Z,-0.3
2017-01-26T23:24:50.095Z,-0.3
2017-01-26T23:25:56.110Z,-0.3
2017-01-26T23:27:01.035Z,-0.2
2017-01-26T23:28:06.397Z,-0.2
2017-01-26T23:29:12.425Z,-0.3
2017-01-26T23:30:18.440Z,-0.3
2017-01-26T23:31:24.461Z,-0.3
2017-01-26T23:32:30.485Z,-0.3
2017-01-26T23:33:36.507Z,-0.3
2017-01-26T23:34:41.866Z,-0.3
2017-01-26T23:35:47.887Z,-0.4
2017-01-26T23:36:53.910Z,-0.3
2017-01-26T23:37:59.926Z,-0.3
2017-01-26T23:39:05.952Z,-0.3
2017-01-26T23:40:11.311Z,-0.3
2017-01-26T23:41:16.229Z,-0.3
2017-01-26T23:42:22.252Z,-0.4
2017-01-26T23:43:28.286Z,-0.4
2017-01-26T23:44:34.305Z,-0.3
2017-01-26T23:45:39.225Z,-0.3
2017-01-26T23:46:45.236Z,-0.3
2017-01-26T23:47:51.268Z,-0.3
2017-01-26T23:48:57.296Z,-0.3
2017-01-26T23:50:03.367Z,-0.4
2017-01-26T23:51:09.380Z,-0.4
2017-01-26T23:52:15.406Z,-0.4
2017-01-26T23:53:21.429Z,-0.4
2017-01-26T23:54:27.441Z,-0.4
2017-01-26T23:55:33.467Z,-0.4
2017-01-26T23:56:38.832Z,-0.3
2017-01-26T23:57:44.850Z,-0.3
2017-01-26T23:58:50.869Z,-0.4
2017-01-26T23:59:56.897Z,-0.4
